Time,TemperatureF,DewpointF,PressureIn,WindDirection,WindDirectionDegrees,WindSpeedMPH,WindSpeedGustMPH,Humidity,HourlyPrecipIn,Conditions,Clouds,dailyrainin,SoftwareType,DateUTC
2013-04-11 00:00:00,60.6,46.2,29.95,NNE,22,0.0,0.0,59,0.00,CLR,,0.00,WeatherDisplay:10.37,2013-04-11 04:00:00,
2013-04-11 00:05:00,60.4,46.0,29.95,NNE,22,0.0,0.0,59,0.00,CLR,,0.00,WeatherDisplay:10.37,2013-04-11 04:05:00,
2013-04-11 00:10:00,60.4,46.5,29.95,NNE,22,0.0,0.0,60,0.00,CLR,,0.00,WeatherDisplay:10.37,2013-04-11 04:10:00,
2013-04-11 00:15:00,60.1,46.1,29.95,NNE,22,0.0,0.0,60,0.00,CLR,,0.00,WeatherDisplay:10.37,2013-04-11 04:15:00,
2013-04-11 00:20:00,59.9,46.0,29.95,NNE,22,0.0,0.0,60,0.00,CLR,,0.00,WeatherDisplay:10.37,2013-04-11 04:20:00,
2013-04-11 00:25:00,59.7,46.2,29.95,NNE,22,0.0,0.0,61,0.00,CLR,,0.00,WeatherDisplay:10.37,2013-04-11 04:25:00,
2013-04-11 00:30:00,59.4,45.9,29.95,NNE,22,0.0,0.0,61,0.00,CLR,,0.00,WeatherDisplay:10.37,2013-04-11 04:30:00,
2013-04-11 00:35:00,59.2,45.7,29.95,NNE,22,0.0,0.0,61,0.00,CLR,,0.00,WeatherDisplay:10.37,2013-04-11 04:35:00,
2013-04-11 00:40:00,58.8,45.8,29.95,NNE,22,0.0,0.0,62,0.00,CLR,,0.00,WeatherDisplay:10.37,2013-04-11 04:40:00,
2013-04-11 00:45:00,58.8,45.8,29.95,NNE,22,0.0,0.0,62,0.00,CLR,,0.00,WeatherDisplay:10.37,2013-04-11 04:45:00,
2013-04-11 00:50:00,58.8,45.8,29.95,NNE,22,0.0,0.0,62,0.00,CLR,,0.00,WeatherDisplay:10.37,2013-04-11 04:50:00,
2013-04-11 00:55:00,58.8,45.8,29.95,NNE,22,0.0,0.0,62,0.00,CLR,,0.00,WeatherDisplay:10.37,2013-04-11 04:55:00,
2013-04-11 01:00:00,58.8,45.8,29.95,NNE,22,0.0,0.0,62,0.00,CLR,,0.00,WeatherDisplay:10.37,2013-04-11 05:00:00,
2013-04-11 01:05:00,58.8,45.8,29.95,NNE,22,0.0,0.0,62,0.00,CLR,,0.00,WeatherDisplay:10.37,2013-04-11 05:05:00,
2013-04-11 01:10:00,58.5,45.9,29.96,NNE,22,0.0,0.0,63,0.00,CLR,,0.00,WeatherDisplay:10.37,2013-04-11 05:10:00,
2013-04-11 01:15:00,58.1,46.0,29.95,NNE,22,0.0,0.0,64,0.00,CLR,,0.00,WeatherDisplay:10.37,2013-04-11 05:15:00,
2013-04-11 01:20:00,57.9,45.8,29.95,NNE,22,0.0,0.0,64,0.00,CLR,,0.00,WeatherDisplay:10.37,2013-04-11 05:20:00,
2013-04-11 01:25:00,57.9,45.8,29.94,NNE,22,0.0,0.0,64,0.00,CLR,,0.00,WeatherDisplay:10.37,2013-04-11 05:25:00,
2013-04-11 01:30:00,57.7,45.6,29.94,NNE,22,0.0,0.0,64,0.00,CLR,,0.00,WeatherDisplay:10.37,2013-04-11 05:30:00,
2013-04-11 01:35:00,57.6,45.5,29.94,NNE,22,0.0,0.0,64,0.00,CLR,,0.00,WeatherDisplay:10.37,2013-04-11 05:35:00,
2013-04-11 01:40:00,57.4,45.7,29.94,NNE,22,0.0,0.0,65,0.00,CLR,,0.00,WeatherDisplay:10.37,2013-04-11 05:40:00,
2013-04-11 01:45:00,57.2,45.5,29.93,NNE,22,0.0,0.0,65,0.00,CLR,,0.00,WeatherDisplay:10.37,2013-04-11 05:45:00,
2013-04-11 01:50:00,57.0,45.4,29.94,NNE,22,0.0,0.0,65,0.00,CLR,,0.00,WeatherDisplay:10.37,2013-04-11 05:50:00,
2013-04-11 01:55:00,57.0,45.4,29.94,NNE,22,0.0,0.0,65,0.00,CLR,,0.00,WeatherDisplay:10.37,2013-04-11 05:55:00,
2013-04-11 02:00:00,56.8,45.2,29.94,NNE,22,0.0,0.0,65,0.00,CLR,,0.00,WeatherDisplay:10.37,2013-04-11 06:00:00,
2013-04-11 02:05:00,56.8,45.6,29.94,NNE,22,0.0,0.0,66,0.00,CLR,,0.00,WeatherDisplay:10.37,2013-04-11 06:05:00,
2013-04-11 02:10:00,56.8,45.6,29.94,NNE,22,0.0,0.0,66,0.00,CLR,,0.00,WeatherDisplay:10.37,2013-04-11 06:10:00,
2013-04-11 02:15:00,56.5,45.7,29.93,NNE,22,0.0,0.0,67,0.00,CLR,,0.00,WeatherDisplay:10.37,2013-04-11 06:15:00,
2013-04-11 02:20:00,56.5,45.7,29.93,NNE,22,0.0,0.0,67,0.00,CLR,,0.00,WeatherDisplay:10.37,2013-04-11 06:20:00,
2013-04-11 02:25:00,56.5,45.7,29.93,NNE,22,0.0,0.0,67,0.00,CLR,,0.00,WeatherDisplay:10.37,2013-04-11 06:25:00,
2013-04-11 02:30:00,56.3,45.1,29.93,NNE,22,0.0,0.0,66,0.00,CLR,,0.00,WeatherDisplay:10.37,2013-04-11 06:30:00,
2013-04-11 02:35:00,56.1,45.3,29.92,NNE,22,0.0,0.0,67,0.00,CLR,,0.00,WeatherDisplay:10.37,2013-04-11 06:35:00,
2013-04-11 02:40:00,56.1,45.3,29.93,NNE,22,0.0,0.0,67,0.00,CLR,,0.00,WeatherDisplay:10.37,2013-04-11 06:40:00,
2013-04-11 02:45:00,56.1,45.7,29.93,NNE,22,0.0,0.0,68,0.00,CLR,,0.00,WeatherDisplay:10.37,2013-04-11 06:45:00,
2013-04-11 02:50:00,55.9,45.5,29.93,NNE,22,0.0,0.0,68,0.00,CLR,,0.00,WeatherDisplay:10.37,2013-04-11 06:50:00,
2013-04-11 02:55:00,55.9,45.5,29.93,NNE,22,0.0,0.0,68,0.00,CLR,,0.00,WeatherDisplay:10.37,2013-04-11 06:55:00,
2013-04-11 03:00:00,55.6,45.2,29.93,NNE,22,0.0,0.0,68,0.00,CLR,,0.00,WeatherDisplay:10.37,2013-04-11 07:00:00,
2013-04-11 03:05:00,55.4,45.0,29.93,NNE,22,0.0,0.0,68,0.00,CLR,,0.00,WeatherDisplay:10.37,2013-04-11 07:05:00,
2013-04-11 03:10:00,55.2,44.8,29.93,NNE,22,0.0,0.0,68,0.00,CLR,,0.00,WeatherDisplay:10.37,2013-04-11 07:10:00,
2013-04-11 03:15:00,55.2,45.2,29.93,NNE,22,0.0,0.0,69,0.00,CLR,,0.00,WeatherDisplay:10.37,2013-04-11 07:15:00,
2013-04-11 03:23:00,55.2,45.2,29.93,NNE,22,0.0,0.0,69,0.00,CLR,,0.00,WeatherDisplay:10.37,2013-04-11 07:23:00,
2013-04-11 03:28:00,54.9,45.3,29.93,NNE,22,0.0,0.0,70,0.00,CLR,,0.00,WeatherDisplay:10.37,2013-04-11 07:28:00,
2013-04-11 03:33:00,54.5,44.9,29.93,NNE,22,0.0,0.0,70,0.00,CLR,,0.00,WeatherDisplay:10.37,2013-04-11 07:33:00,
2013-04-11 03:38:00,54.5,45.3,29.92,NNE,22,0.0,0.0,71,0.00,CLR,,0.00,WeatherDisplay:10.37,2013-04-11 07:38:00,
2013-04-11 03:43:00,54.5,45.3,29.92,NNE,22,0.0,0.0,71,0.00,CLR,,0.00,WeatherDisplay:10.37,2013-04-11 07:43:00,
2013-04-11 03:48:00,54.3,45.1,29.92,NNE,22,0.0,0.0,71,0.00,CLR,,0.00,WeatherDisplay:10.37,2013-04-11 07:48:00,
2013-04-11 03:53:00,54.3,45.1,29.92,NNE,22,0.0,0.0,71,0.00,CLR,,0.00,WeatherDisplay:10.37,2013-04-11 07:53:00,
2013-04-11 03:58:00,54.3,45.1,29.93,NNE,22,0.0,0.0,71,0.00,CLR,,0.00,WeatherDisplay:10.37,2013-04-11 07:58:00,
2013-04-11 04:03:00,54.3,45.1,29.93,NNE,22,0.0,0.0,71,0.00,CLR,,0.00,WeatherDisplay:10.37,2013-04-11 08:03:00,
2013-04-11 04:08:00,54.3,45.5,29.93,NNE,22,0.0,0.0,72,0.00,CLR,,0.00,WeatherDisplay:10.37,2013-04-11 08:08:00,
2013-04-11 04:13:00,54.3,45.5,29.93,NNE,22,0.0,0.0,72,0.00,CLR,,0.00,WeatherDisplay:10.37,2013-04-11 08:13:00,
2013-04-11 04:18:00,54.1,45.3,29.92,NNE,22,0.0,0.0,72,0.00,CLR,,0.00,WeatherDisplay:10.37,2013-04-11 08:18:00,
2013-04-11 04:23:00,53.8,45.0,29.92,NNE,22,0.0,0.0,72,0.00,CLR,,0.00,WeatherDisplay:10.37,2013-04-11 08:23:00,
2013-04-11 04:28:00,53.8,45.3,29.92,NNE,22,0.0,0.0,73,0.00,CLR,,0.00,WeatherDisplay:10.37,2013-04-11 08:28:00,
2013-04-11 04:33:00,53.6,45.2,29.92,NNE,22,0.0,0.0,73,0.00,CLR,,0.00,WeatherDisplay:10.37,2013-04-11 08:33:00,
2013-04-11 04:38:00,53.6,45.5,29.92,NNE,22,0.0,0.0,74,0.00,CLR,,0.00,WeatherDisplay:10.37,2013-04-11 08:38:00,
2013-04-11 04:43:00,53.4,45.3,29.93,NNE,22,0.0,0.0,74,0.00,CLR,,0.00,WeatherDisplay:10.37,2013-04-11 08:43:00,
2013-04-11 04:48:00,53.4,45.3,29.93,NNE,22,0.0,0.0,74,0.00,CLR,,0.00,WeatherDisplay:10.37,2013-04-11 08:48:00,
2013-04-11 04:53:00,53.4,45.3,29.93,NNE,22,0.0,0.0,74,0.00,CLR,,0.00,WeatherDisplay:10.37,2013-04-11 08:53:00,
2013-04-11 04:58:00,53.4,45.3,29.93,NNE,22,0.0,0.0,74,0.00,CLR,,0.00,WeatherDisplay:10.37,2013-04-11 08:58:00,
2013-04-11 05:03:00,53.8,46.0,29.93,NNE,22,0.0,0.0,75,0.00,CLR,,0.00,WeatherDisplay:10.37,2013-04-11 09:03:00,
2013-04-11 05:08:00,53.8,46.0,29.93,NNE,22,0.0,0.0,75,0.00,CLR,,0.00,WeatherDisplay:10.37,2013-04-11 09:08:00,
2013-04-11 05:13:00,54.0,46.2,29.93,NNE,22,0.0,0.0,75,0.00,CLR,,0.00,WeatherDisplay:10.37,2013-04-11 09:13:00,
2013-04-11 05:18:00,53.8,46.0,29.93,NNE,22,0.0,0.0,75,0.00,CLR,,0.00,WeatherDisplay:10.37,2013-04-11 09:18:00,
2013-04-11 05:23:00,53.8,46.0,29.92,NNE,22,0.0,0.0,75,0.00,CLR,,0.00,WeatherDisplay:10.37,2013-04-11 09:23:00,
2013-04-11 05:28:00,53.8,46.0,29.92,NNE,22,0.0,0.0,75,0.00,CLR,,0.00,WeatherDisplay:10.37,2013-04-11 09:28:00,
2013-04-11 05:33:00,53.6,45.9,29.92,NNE,22,0.0,0.0,75,0.00,CLR,,0.00,WeatherDisplay:10.37,2013-04-11 09:33:00,
2013-04-11 05:38:00,53.4,46.0,29.92,NNE,22,0.0,0.0,76,0.00,CLR,,0.00,WeatherDisplay:10.37,2013-04-11 09:38:00,
2013-04-11 05:43:00,53.4,46.0,29.92,NNE,22,0.0,0.0,76,0.00,CLR,,0.00,WeatherDisplay:10.37,2013-04-11 09:43:00,
2013-04-11 05:48:00,53.4,46.0,29.92,NNE,22,0.0,0.0,76,0.00,CLR,,0.00,WeatherDisplay:10.37,2013-04-11 09:48:00,
2013-04-11 05:53:00,53.4,46.0,29.92,NNE,22,0.0,0.0,76,0.00,CLR,,0.00,WeatherDisplay:10.37,2013-04-11 09:53:00,
2013-04-11 05:58:00,53.4,46.0,29.93,NNE,22,0.0,0.0,76,0.00,CLR,,0.00,WeatherDisplay:10.37,2013-04-11 09:58:00,
2013-04-11 06:03:00,53.4,46.0,29.92,NNE,22,0.0,0.0,76,0.00,CLR,,0.00,WeatherDisplay:10.37,2013-04-11 10:03:00,
2013-04-11 06:08:00,53.4,46.0,29.93,NNE,22,0.0,0.0,76,0.00,CLR,,0.00,WeatherDisplay:10.37,2013-04-11 10:08:00,
2013-04-11 06:13:00,53.4,46.0,29.93,NNE,22,0.0,0.0,76,0.00,CLR,,0.00,WeatherDisplay:10.37,2013-04-11 10:13:00,
2013-04-11 06:18:00,53.4,46.4,29.93,NNE,22,0.0,0.0,77,0.00,CLR,,0.00,WeatherDisplay:10.37,2013-04-11 10:18:00,
2013-04-11 06:23:00,53.2,46.2,29.93,NNE,22,0.0,0.0,77,0.00,CLR,,0.00,WeatherDisplay:10.37,2013-04-11 10:23:00,
2013-04-11 06:28:00,53.2,46.2,29.93,NNE,22,0.0,0.0,77,0.00,CLR,,0.00,WeatherDisplay:10.37,2013-04-11 10:28:00,
2013-04-11 06:33:00,52.9,45.9,29.93,NNE,22,0.0,0.0,77,0.00,CLR,,0.00,WeatherDisplay:10.37,2013-04-11 10:33:00,
2013-04-11 06:38:00,52.7,46.0,29.93,NNE,22,0.0,0.0,78,0.00,CLR,,0.00,WeatherDisplay:10.37,2013-04-11 10:38:00,
2013-04-11 06:43:00,52.3,45.7,29.93,NNE,22,0.0,0.0,78,0.00,CLR,,0.00,WeatherDisplay:10.37,2013-04-11 10:43:00,
2013-04-11 06:48:00,52.3,45.7,29.93,NNE,22,0.0,0.0,78,0.00,CLR,,0.00,WeatherDisplay:10.37,2013-04-11 10:48:00,
2013-04-11 06:53:00,52.2,45.5,29.93,NNE,22,0.0,0.0,78,0.00,CLR,,0.00,WeatherDisplay:10.37,2013-04-11 10:53:00,
2013-04-11 06:58:00,52.0,45.3,29.93,NNE,22,0.0,0.0,78,0.00,CLR,,0.00,WeatherDisplay:10.37,2013-04-11 10:58:00,
2013-04-11 07:03:00,51.8,45.5,29.93,NNE,22,0.0,0.0,79,0.00,CLR,,0.00,WeatherDisplay:10.37,2013-04-11 11:03:00,
2013-04-11 07:08:00,51.6,45.3,29.93,NNE,22,0.0,0.0,79,0.00,CLR,,0.00,WeatherDisplay:10.37,2013-04-11 11:08:00,
2013-04-11 07:13:00,51.6,45.3,29.94,NNE,22,0.0,0.0,79,0.00,CLR,,0.00,WeatherDisplay:10.37,2013-04-11 11:13:00,
2013-04-11 07:18:00,51.6,45.3,29.94,NNE,22,0.0,0.0,79,0.00,CLR,,0.00,WeatherDisplay:10.37,2013-04-11 11:18:00,
2013-04-11 07:23:00,51.6,45.7,29.94,NNE,22,0.0,0.0,80,0.00,CLR,,0.00,WeatherDisplay:10.37,2013-04-11 11:23:00,
2013-04-11 07:28:00,51.6,45.7,29.94,NNE,22,0.0,0.0,80,0.00,CLR,,0.00,WeatherDisplay:10.37,2013-04-11 11:28:00,
2013-04-11 07:33:00,52.0,46.0,29.94,NNE,22,0.0,0.0,80,0.00,CLR,,0.00,WeatherDisplay:10.37,2013-04-11 11:33:00,
2013-04-11 07:38:00,52.2,46.5,29.94,NNE,22,0.0,0.0,81,0.00,CLR,,0.00,WeatherDisplay:10.37,2013-04-11 11:38:00,
2013-04-11 07:43:00,52.2,46.5,29.94,NNE,22,0.0,0.0,81,0.00,CLR,,0.00,WeatherDisplay:10.37,2013-04-11 11:43:00,
2013-04-11 07:48:00,52.3,46.4,29.94,NNE,22,0.0,0.0,80,0.00,CLR,,0.00,WeatherDisplay:10.37,2013-04-11 11:48:00,
2013-04-11 07:53:00,52.5,46.5,29.95,NNE,22,0.0,0.0,80,0.00,CLR,,0.00,WeatherDisplay:10.37,2013-04-11 11:53:00,
2013-04-11 07:58:00,52.9,46.9,29.95,NNE,22,0.0,0.0,80,0.00,CLR,,0.00,WeatherDisplay:10.37,2013-04-11 11:58:00,
2013-04-11 08:03:00,53.4,47.4,29.95,NNE,22,0.0,0.0,80,0.00,CLR,,0.00,WeatherDisplay:10.37,2013-04-11 12:03:00,
2013-04-11 08:08:00,53.8,47.8,29.95,NNE,22,0.0,0.0,80,0.00,CLR,,0.00,WeatherDisplay:10.37,2013-04-11 12:08:00,
2013-04-11 08:13:00,54.1,48.1,29.95,NNE,22,0.0,0.0,80,0.00,CLR,,0.00,WeatherDisplay:10.37,2013-04-11 12:13:00,
2013-04-11 08:18:00,54.3,48.3,29.95,NNE,22,0.0,0.0,80,0.00,CLR,,0.00,WeatherDisplay:10.37,2013-04-11 12:18:00,
2013-04-11 08:23:00,55.2,49.2,29.95,NNE,22,0.0,0.0,80,0.00,CLR,,0.00,WeatherDisplay:10.37,2013-04-11 12:23:00,
2013-04-11 08:28:00,55.9,49.5,29.95,NNE,22,0.0,0.0,79,0.00,CLR,,0.00,WeatherDisplay:10.37,2013-04-11 12:28:00,
2013-04-11 08:33:00,57.0,50.6,29.95,NNE,22,0.0,0.0,79,0.00,CLR,,0.00,WeatherDisplay:10.37,2013-04-11 12:33:00,
2013-04-11 08:38:00,58.5,51.6,29.95,NNE,22,0.0,0.0,78,0.00,CLR,,0.00,WeatherDisplay:10.37,2013-04-11 12:38:00,
2013-04-11 08:43:00,60.1,52.5,29.94,NNE,22,0.0,0.0,76,0.00,CLR,,0.00,WeatherDisplay:10.37,2013-04-11 12:43:00,
2013-04-11 08:48:00,60.6,52.3,29.95,NNE,22,0.0,0.0,74,0.00,CLR,,0.00,WeatherDisplay:10.37,2013-04-11 12:48:00,
2013-04-11 08:53:00,61.3,53.0,29.94,NNE,22,0.0,0.0,74,0.00,CLR,,0.00,WeatherDisplay:10.37,2013-04-11 12:53:00,
2013-04-11 08:58:00,61.7,53.0,29.94,NNE,22,0.0,0.0,73,0.00,CLR,,0.00,WeatherDisplay:10.37,2013-04-11 12:58:00,
2013-04-11 09:03:00,62.4,53.3,29.94,NNE,22,0.0,0.0,72,0.00,CLR,,0.00,WeatherDisplay:10.37,2013-04-11 13:03:00,
2013-04-11 09:08:00,63.7,54.5,29.94,NNE,22,0.0,0.0,72,0.00,CLR,,0.00,WeatherDisplay:10.37,2013-04-11 13:08:00,
2013-04-11 09:13:00,64.6,54.2,29.94,NNE,22,0.0,0.0,69,0.00,CLR,,0.00,WeatherDisplay:10.37,2013-04-11 13:13:00,
2013-04-11 09:18:00,65.7,54.8,29.94,NNE,22,0.0,0.0,68,0.00,CLR,,0.00,WeatherDisplay:10.37,2013-04-11 13:18:00,
2013-04-11 09:23:00,66.0,54.7,29.94,NNE,22,1.1,1.8,67,0.00,CLR,,0.00,WeatherDisplay:10.37,2013-04-11 13:23:00,
2013-04-11 09:28:00,67.3,54.3,29.94,NNE,22,6.9,6.9,63,0.00,CLR,,0.00,WeatherDisplay:10.37,2013-04-11 13:28:00,
2013-04-11 09:33:00,67.8,54.8,29.94,NNE,22,4.6,4.6,63,0.00,CLR,,0.00,WeatherDisplay:10.37,2013-04-11 13:33:00,
2013-04-11 09:38:00,68.2,54.7,29.94,NNE,22,5.1,5.1,62,0.00,CLR,,0.00,WeatherDisplay:10.37,2013-04-11 13:38:00,
2013-04-11 09:43:00,68.5,55.0,29.94,NNE,22,3.5,3.5,62,0.00,CLR,,0.00,WeatherDisplay:10.37,2013-04-11 13:43:00,
2013-04-11 09:48:00,68.9,54.9,29.93,NNE,22,4.6,4.8,61,0.00,CLR,,0.00,WeatherDisplay:10.37,2013-04-11 13:48:00,
2013-04-11 09:54:00,69.6,54.7,29.94,NNE,22,6.9,7.2,59,0.00,CLR,,0.00,WeatherDisplay:10.37,2013-04-11 13:54:00,
2013-04-11 09:59:00,70.9,55.4,29.94,NNE,22,5.8,5.8,58,0.00,CLR,,0.00,WeatherDisplay:10.37,2013-04-11 13:59:00,
2013-04-11 10:04:00,71.6,56.0,29.94,NNE,22,2.3,2.5,58,0.00,CLR,,0.00,WeatherDisplay:10.37,2013-04-11 14:04:00,
2013-04-11 10:09:00,72.5,56.4,29.94,NNE,22,1.1,1.1,57,0.00,CLR,,0.00,WeatherDisplay:10.37,2013-04-11 14:09:00,
2013-04-11 10:14:00,73.6,55.9,29.94,NNE,22,4.6,4.6,54,0.00,CLR,,0.00,WeatherDisplay:10.37,2013-04-11 14:14:00,
2013-04-11 10:19:00,74.1,56.4,29.94,NNE,22,6.9,6.9,54,0.00,CLR,,0.00,WeatherDisplay:10.37,2013-04-11 14:19:00,
2013-04-11 10:24:00,74.5,56.2,29.93,NNE,22,10.4,10.4,53,0.00,CLR,,0.00,WeatherDisplay:10.37,2013-04-11 14:24:00,
2013-04-11 10:29:00,75.0,56.2,29.93,NNE,22,6.9,0.0,52,0.00,CLR,,0.00,WeatherDisplay:10.37,2013-04-11 14:29:00,
2013-04-11 10:34:00,75.9,57.0,29.93,NNE,22,4.6,4.6,52,0.00,CLR,,0.00,WeatherDisplay:10.37,2013-04-11 14:34:00,
2013-04-11 10:39:00,77.5,57.4,29.93,NNE,22,7.7,7.7,50,0.00,CLR,,0.00,WeatherDisplay:10.37,2013-04-11 14:39:00,
2013-04-11 10:44:00,76.6,56.0,29.93,NNE,22,8.1,8.1,49,0.00,CLR,,0.00,WeatherDisplay:10.37,2013-04-11 14:44:00,
2013-04-11 10:49:00,76.3,56.3,29.93,NNE,22,4.1,4.1,50,0.00,CLR,,0.00,WeatherDisplay:10.37,2013-04-11 14:49:00,
2013-04-11 10:54:00,75.7,55.8,29.93,NNE,22,8.1,8.1,50,0.00,CLR,,0.00,WeatherDisplay:10.37,2013-04-11 14:54:00,
2013-04-11 10:59:00,75.4,55.4,29.93,NNE,22,4.6,5.0,50,0.00,CLR,,0.00,WeatherDisplay:10.37,2013-04-11 14:59:00,
2013-04-11 11:04:00,74.8,55.5,29.93,NNE,22,4.6,4.6,51,0.00,CLR,,0.00,WeatherDisplay:10.37,2013-04-11 15:04:00,
2013-04-11 11:09:00,74.5,55.7,29.93,NNE,22,1.1,1.1,52,0.00,CLR,,0.00,WeatherDisplay:10.37,2013-04-11 15:09:00,
2013-04-11 11:14:00,74.5,55.7,29.93,NNE,22,1.1,1.5,52,0.00,CLR,,0.00,WeatherDisplay:10.37,2013-04-11 15:14:00,
2013-04-11 11:19:00,74.5,55.2,29.93,NNE,22,3.4,3.4,51,0.00,CLR,,0.00,WeatherDisplay:10.37,2013-04-11 15:19:00,
2013-04-11 11:24:00,75.0,55.7,29.93,NNE,22,3.5,3.5,51,0.00,CLR,,0.00,WeatherDisplay:10.37,2013-04-11 15:24:00,
2013-04-11 11:29:00,76.5,56.4,29.93,NNE,22,0.0,0.0,50,0.00,CLR,,0.00,WeatherDisplay:10.37,2013-04-11 15:29:00,
2013-04-11 11:34:00,78.4,57.7,29.93,NNE,22,0.0,0.0,49,0.00,CLR,,0.00,WeatherDisplay:10.37,2013-04-11 15:34:00,
2013-04-11 11:39:00,79.5,57.5,29.93,NNE,22,4.6,4.6,47,0.00,CLR,,0.00,WeatherDisplay:10.37,2013-04-11 15:39:00,
2013-04-11 11:44:00,79.7,57.7,29.93,NNE,22,1.1,1.1,47,0.00,CLR,,0.00,WeatherDisplay:10.37,2013-04-11 15:44:00,
2013-04-11 11:49:00,79.5,56.9,29.93,NNE,22,4.6,4.6,46,0.00,CLR,,0.00,WeatherDisplay:10.37,2013-04-11 15:49:00,
2013-04-11 11:54:00,79.0,55.8,29.93,NNE,22,2.3,2.3,45,0.00,CLR,,0.00,WeatherDisplay:10.37,2013-04-11 15:54:00,
2013-04-11 11:59:00,78.6,56.7,29.93,NNE,22,0.0,0.0,47,0.00,CLR,,0.00,WeatherDisplay:10.37,2013-04-11 15:59:00,
2013-04-11 12:04:00,78.6,56.1,29.92,NNE,22,0.0,0.0,46,0.00,CLR,,0.00,WeatherDisplay:10.37,2013-04-11 16:04:00,
2013-04-11 12:09:00,78.6,56.1,29.92,NNE,22,5.8,6.5,46,0.00,CLR,,0.00,WeatherDisplay:10.37,2013-04-11 16:09:00,
2013-04-11 12:14:00,79.3,56.8,29.91,NNE,22,0.0,0.0,46,0.00,CLR,,0.00,WeatherDisplay:10.37,2013-04-11 16:14:00,
2013-04-11 12:19:00,81.0,57.6,29.91,NNE,22,7.2,7.2,45,0.00,CLR,,0.00,WeatherDisplay:10.37,2013-04-11 16:19:00,
2013-04-11 12:24:00,82.0,58.0,29.90,NNE,22,1.1,1.5,44,0.00,CLR,,0.00,WeatherDisplay:10.37,2013-04-11 16:24:00,
2013-04-11 12:29:00,82.4,57.0,29.90,NNE,22,2.4,2.5,42,0.00,CLR,,0.00,WeatherDisplay:10.37,2013-04-11 16:29:00,
2013-04-11 12:34:00,82.6,57.2,29.90,NNE,22,5.8,5.8,42,0.00,CLR,,0.00,WeatherDisplay:10.37,2013-04-11 16:34:00,
2013-04-11 12:39:00,83.5,57.3,29.90,NNE,22,5.8,5.8,41,0.00,CLR,,0.00,WeatherDisplay:10.37,2013-04-11 16:39:00,
2013-04-11 12:44:00,82.9,56.8,29.90,NNE,22,2.3,2.3,41,0.00,CLR,,0.00,WeatherDisplay:10.37,2013-04-11 16:44:00,
2013-04-11 12:49:00,82.2,56.2,29.90,NNE,22,6.9,6.9,41,0.00,CLR,,0.00,WeatherDisplay:10.37,2013-04-11 16:49:00,
2013-04-11 12:54:00,82.2,56.8,29.89,NNE,22,0.0,0.0,42,0.00,CLR,,0.00,WeatherDisplay:10.37,2013-04-11 16:54:00,
2013-04-11 12:59:00,82.6,57.2,29.89,NNE,22,1.2,1.3,42,0.00,CLR,,0.00,WeatherDisplay:10.37,2013-04-11 16:59:00,
2013-04-11 13:04:00,83.5,57.3,29.88,NNE,22,1.1,1.1,41,0.00,CLR,,0.00,WeatherDisplay:10.37,2013-04-11 17:04:00,
2013-04-11 13:09:00,84.6,57.6,29.88,NNE,22,4.6,0.0,40,0.00,CLR,,0.00,WeatherDisplay:10.37,2013-04-11 17:09:00,
2013-04-11 13:14:00,86.7,59.5,29.88,NNE,22,6.0,6.0,40,0.00,CLR,,0.00,WeatherDisplay:10.37,2013-04-11 17:14:00,
2013-04-11 13:19:00,87.8,59.0,29.88,NNE,22,0.0,0.0,38,0.00,CLR,,0.00,WeatherDisplay:10.37,2013-04-11 17:19:00,
2013-04-11 13:24:00,87.4,58.0,29.88,NNE,22,6.9,6.9,37,0.00,CLR,,0.00,WeatherDisplay:10.37,2013-04-11 17:24:00,
2013-04-11 13:29:00,86.4,58.5,29.88,NNE,22,5.8,5.8,39,0.00,CLR,,0.00,WeatherDisplay:10.37,2013-04-11 17:29:00,
2013-04-11 13:34:00,86.2,58.3,29.87,NNE,22,2.3,2.3,39,0.00,CLR,,0.00,WeatherDisplay:10.37,2013-04-11 17:34:00,
2013-04-11 13:39:00,86.2,58.3,29.86,NNE,22,1.7,1.8,39,0.00,CLR,,0.00,WeatherDisplay:10.37,2013-04-11 17:39:00,
2013-04-11 13:44:00,85.8,58.0,29.86,NNE,22,0.0,0.3,39,0.00,CLR,,0.00,WeatherDisplay:10.37,2013-04-11 17:44:00,
2013-04-11 13:49:00,84.7,56.3,29.85,NNE,22,4.6,4.9,38,0.00,CLR,,0.00,WeatherDisplay:10.37,2013-04-11 17:49:00,
2013-04-11 13:54:00,84.0,56.4,29.85,NNE,22,3.5,3.5,39,0.00,CLR,,0.00,WeatherDisplay:10.37,2013-04-11 17:54:00,
2013-04-11 13:59:00,82.8,56.7,29.85,NNE,22,1.1,1.3,41,0.00,CLR,,0.00,WeatherDisplay:10.37,2013-04-11 17:59:00,
2013-04-11 14:04:00,82.2,55.5,29.84,NNE,22,3.5,3.5,40,0.00,CLR,,0.00,WeatherDisplay:10.37,2013-04-11 18:04:00,
2013-04-11 14:09:00,82.2,56.2,29.84,NNE,22,3.5,3.5,41,0.00,CLR,,0.00,WeatherDisplay:10.37,2013-04-11 18:09:00,
2013-04-11 14:14:00,82.0,56.0,29.84,NNE,22,2.3,2.3,41,0.00,CLR,,0.00,WeatherDisplay:10.37,2013-04-11 18:14:00,
2013-04-11 14:19:00,82.0,56.7,29.83,NNE,22,0.0,0.0,42,0.00,CLR,,0.00,WeatherDisplay:10.37,2013-04-11 18:19:00,
2013-04-11 14:24:00,82.6,56.5,29.83,NNE,22,2.3,2.3,41,0.00,CLR,,0.00,WeatherDisplay:10.37,2013-04-11 18:24:00,
2013-04-11 14:29:00,82.6,56.5,29.83,NNE,22,0.0,0.0,41,0.00,CLR,,0.00,WeatherDisplay:10.37,2013-04-11 18:29:00,
2013-04-11 14:34:00,82.8,56.0,29.83,NNE,22,0.0,0.0,40,0.00,CLR,,0.00,WeatherDisplay:10.37,2013-04-11 18:34:00,
2013-04-11 14:40:00,82.6,55.8,29.83,NNE,22,0.0,0.0,40,0.00,CLR,,0.00,WeatherDisplay:10.37,2013-04-11 18:40:00,
2013-04-11 14:45:00,82.8,56.0,29.83,NNE,22,6.5,6.5,40,0.00,CLR,,0.00,WeatherDisplay:10.37,2013-04-11 18:45:00,
2013-04-11 14:50:00,82.9,54.7,29.83,NNE,22,4.6,4.6,38,0.00,CLR,,0.00,WeatherDisplay:10.37,2013-04-11 18:50:00,
2013-04-11 14:55:00,83.1,54.9,29.82,NNE,22,6.9,0.0,38,0.00,CLR,,0.00,WeatherDisplay:10.37,2013-04-11 18:55:00,
2013-04-11 15:00:00,83.5,55.9,29.82,NNE,22,5.8,5.8,39,0.00,CLR,,0.00,WeatherDisplay:10.37,2013-04-11 19:00:00,
2013-04-11 15:05:00,83.8,54.8,29.81,NNE,22,4.6,5.5,37,0.00,CLR,,0.00,WeatherDisplay:10.37,2013-04-11 19:05:00,
2013-04-11 15:10:00,83.8,54.8,29.81,NNE,22,1.1,1.5,37,0.00,CLR,,0.00,WeatherDisplay:10.37,2013-04-11 19:10:00,
2013-04-11 15:15:00,84.4,55.3,29.81,NNE,22,7.5,7.5,37,0.00,CLR,,0.00,WeatherDisplay:10.37,2013-04-11 19:15:00,
2013-04-11 15:20:00,84.7,54.1,29.81,NNE,22,6.9,6.9,35,0.00,CLR,,0.00,WeatherDisplay:10.37,2013-04-11 19:20:00,
2013-04-11 15:25:00,84.7,54.1,29.81,NNE,22,5.8,6.3,35,0.00,CLR,,0.00,WeatherDisplay:10.37,2013-04-11 19:25:00,
2013-04-11 15:30:00,84.2,53.6,29.81,NNE,22,6.9,7.1,35,0.00,CLR,,0.00,WeatherDisplay:10.37,2013-04-11 19:30:00,
2013-04-11 15:35:00,84.9,53.4,29.80,NNE,22,3.5,3.5,34,0.00,CLR,,0.00,WeatherDisplay:10.37,2013-04-11 19:35:00,
2013-04-11 15:40:00,85.3,52.9,29.80,NNE,22,5.1,5.3,33,0.00,CLR,,0.00,WeatherDisplay:10.37,2013-04-11 19:40:00,
2013-04-11 15:45:00,84.0,52.6,29.80,NNE,22,6.3,6.3,34,0.00,CLR,,0.00,WeatherDisplay:10.37,2013-04-11 19:45:00,
2013-04-11 15:50:00,83.5,51.3,29.80,NNE,22,6.0,6.3,33,0.00,CLR,,0.00,WeatherDisplay:10.37,2013-04-11 19:50:00,
2013-04-11 15:55:00,83.1,51.8,29.79,NNE,22,2.0,6.0,34,0.00,CLR,,0.00,WeatherDisplay:10.37,2013-04-11 19:55:00,
2013-04-11 16:00:00,83.8,49.1,29.79,NNE,22,5.8,5.8,30,0.00,CLR,,0.00,WeatherDisplay:10.37,2013-04-11 20:00:00,
2013-04-11 16:05:00,84.0,48.3,29.79,NNE,22,7.0,7.0,29,0.00,CLR,,0.00,WeatherDisplay:10.37,2013-04-11 20:05:00,
2013-04-11 16:10:00,84.7,48.0,29.79,NNE,22,2.0,7.0,28,0.00,CLR,,0.00,WeatherDisplay:10.37,2013-04-11 20:10:00,
2013-04-11 16:15:00,85.4,49.5,29.78,NNE,22,5.0,5.0,29,0.00,CLR,,0.00,WeatherDisplay:10.37,2013-04-11 20:15:00,
2013-04-11 16:20:00,86.0,48.1,29.78,NNE,22,4.6,4.6,27,0.00,CLR,,0.00,WeatherDisplay:10.37,2013-04-11 20:20:00,
2013-04-11 16:25:00,85.3,48.5,29.78,NNE,22,2.0,4.0,28,0.00,CLR,,0.00,WeatherDisplay:10.37,2013-04-11 20:25:00,
2013-04-11 16:30:00,85.3,46.5,29.77,NNE,22,2.3,2.4,26,0.00,CLR,,0.00,WeatherDisplay:10.37,2013-04-11 20:30:00,
2013-04-11 16:35:00,85.3,47.5,29.77,NNE,22,3.0,3.0,27,0.00,CLR,,0.00,WeatherDisplay:10.37,2013-04-11 20:35:00,
2013-04-11 16:40:00,85.8,48.0,29.77,NNE,22,2.3,0.0,27,0.00,CLR,,0.00,WeatherDisplay:10.37,2013-04-11 20:40:00,
2013-04-11 16:45:00,86.9,48.9,29.76,NNE,22,1.0,6.0,27,0.00,CLR,,0.00,WeatherDisplay:10.37,2013-04-11 20:45:00,
2013-04-11 16:50:00,87.1,48.0,29.76,NNE,22,2.3,2.5,26,0.00,CLR,,0.00,WeatherDisplay:10.37,2013-04-11 20:50:00,
2013-04-11 16:55:00,87.6,48.5,29.75,NNE,22,2.0,6.0,26,0.00,CLR,,0.00,WeatherDisplay:10.37,2013-04-11 20:55:00,
2013-04-11 17:00:00,87.5,49.4,29.75,NNE,22,3.0,8.0,27,0.00,CLR,,0.00,WeatherDisplay:10.37,2013-04-11 21:00:00,
2013-04-11 17:05:00,86.9,48.9,29.75,NNE,22,2.0,8.0,27,0.00,CLR,,0.00,WeatherDisplay:10.37,2013-04-11 21:05:00,
2013-04-11 17:10:00,87.6,50.5,29.75,NNE,22,6.9,6.9,28,0.00,CLR,,0.00,WeatherDisplay:10.37,2013-04-11 21:10:00,
2013-04-11 17:15:00,88.0,50.8,29.74,NNE,22,1.1,1.3,28,0.00,CLR,,0.00,WeatherDisplay:10.37,2013-04-11 21:15:00,
2013-04-11 17:20:00,87.6,50.5,29.75,NNE,22,1.1,1.1,28,0.00,CLR,,0.00,WeatherDisplay:10.37,2013-04-11 21:20:00,
2013-04-11 17:25:00,86.2,50.2,29.74,NNE,22,6.3,0.0,29,0.00,CLR,,0.00,WeatherDisplay:10.37,2013-04-11 21:25:00,
2013-04-11 17:30:00,85.8,50.8,29.74,NNE,22,4.6,5.0,30,0.00,CLR,,0.00,WeatherDisplay:10.37,2013-04-11 21:30:00,
2013-04-11 17:35:00,85.6,50.6,29.75,NNE,22,7.0,8.0,30,0.00,CLR,,0.00,WeatherDisplay:10.37,2013-04-11 21:35:00,
2013-04-11 17:40:00,85.1,52.8,29.75,NNE,22,0.0,0.0,33,0.00,CLR,,0.00,WeatherDisplay:10.37,2013-04-11 21:40:00,
2013-04-11 17:45:00,83.3,52.0,29.75,NNE,22,8.1,8.1,34,0.00,CLR,,0.00,WeatherDisplay:10.37,2013-04-11 21:45:00,
2013-04-11 17:50:00,82.0,52.4,29.75,NNE,22,1.1,1.8,36,0.00,CLR,,0.00,WeatherDisplay:10.37,2013-04-11 21:50:00,
2013-04-11 17:55:00,80.6,52.6,29.75,NNE,22,4.6,4.6,38,0.00,CLR,,0.00,WeatherDisplay:10.37,2013-04-11 21:55:00,
2013-04-11 18:00:00,79.9,52.7,29.75,NNE,22,0.0,0.0,39,0.00,CLR,,0.00,WeatherDisplay:10.37,2013-04-11 22:00:00,
2013-04-11 18:05:00,79.3,52.2,29.75,NNE,22,5.8,6.0,39,0.00,CLR,,0.00,WeatherDisplay:10.37,2013-04-11 22:05:00,
2013-04-11 18:10:00,78.6,52.3,29.75,NNE,22,3.9,3.9,40,0.00,CLR,,0.00,WeatherDisplay:10.37,2013-04-11 22:10:00,
2013-04-11 18:15:00,78.4,52.1,29.75,NNE,22,3.5,3.5,40,0.00,CLR,,0.00,WeatherDisplay:10.37,2013-04-11 22:15:00,
2013-04-11 18:20:00,78.1,52.5,29.75,NNE,22,3.5,3.5,41,0.00,CLR,,0.00,WeatherDisplay:10.37,2013-04-11 22:20:00,
2013-04-11 18:25:00,77.7,52.8,29.75,NNE,22,2.3,2.3,42,0.00,CLR,,0.00,WeatherDisplay:10.37,2013-04-11 22:25:00,
2013-04-11 18:30:00,77.4,53.1,29.75,NNE,22,6.9,6.9,43,0.00,CLR,,0.00,WeatherDisplay:10.37,2013-04-11 22:30:00,
2013-04-11 18:35:00,77.0,53.4,29.75,NNE,22,4.6,4.8,44,0.00,CLR,,0.00,WeatherDisplay:10.37,2013-04-11 22:35:00,
2013-04-11 18:40:00,76.8,53.3,29.75,NNE,22,5.8,5.8,44,0.00,CLR,,0.00,WeatherDisplay:10.37,2013-04-11 22:40:00,
2013-04-11 18:45:00,76.5,52.9,29.75,NNE,22,4.6,4.6,44,0.00,CLR,,0.00,WeatherDisplay:10.37,2013-04-11 22:45:00,
2013-04-11 18:50:00,76.3,53.4,29.75,NNE,22,9.2,9.2,45,0.00,CLR,,0.00,WeatherDisplay:10.37,2013-04-11 22:50:00,
2013-04-11 18:55:00,75.7,52.9,29.75,NNE,22,8.1,8.1,45,0.00,CLR,,0.00,WeatherDisplay:10.37,2013-04-11 22:55:00,
2013-04-11 19:00:00,75.7,53.5,29.75,NNE,22,1.1,1.1,46,0.00,CLR,,0.00,WeatherDisplay:10.37,2013-04-11 23:00:00,
2013-04-11 19:05:00,75.4,53.2,29.75,NNE,22,0.0,0.0,46,0.00,CLR,,0.00,WeatherDisplay:10.37,2013-04-11 23:05:00,
2013-04-11 19:10:00,75.0,52.8,29.75,NNE,22,2.3,2.3,46,0.00,CLR,,0.00,WeatherDisplay:10.37,2013-04-11 23:10:00,
2013-04-11 19:15:00,75.0,52.8,29.75,NNE,22,4.6,4.6,46,0.00,CLR,,0.00,WeatherDisplay:10.37,2013-04-11 23:15:00,
2013-04-11 19:20:00,74.5,52.9,29.75,NNE,22,4.6,4.8,47,0.00,CLR,,0.00,WeatherDisplay:10.37,2013-04-11 23:20:00,
2013-04-11 19:25:00,74.5,52.9,29.75,NNE,22,4.6,4.6,47,0.00,CLR,,0.00,WeatherDisplay:10.37,2013-04-11 23:25:00,
2013-04-11 19:30:00,74.1,52.6,29.75,NNE,22,4.6,4.6,47,0.00,CLR,,0.00,WeatherDisplay:10.37,2013-04-11 23:30:00,
2013-04-11 19:35:00,73.9,52.4,29.75,NNE,22,3.5,5.3,47,0.00,CLR,,0.00,WeatherDisplay:10.37,2013-04-11 23:35:00,
2013-04-11 19:40:00,73.9,52.4,29.75,NNE,22,9.4,9.4,47,0.00,CLR,,0.00,WeatherDisplay:10.37,2013-04-11 23:40:00,
2013-04-11 19:45:00,73.8,52.3,29.76,NNE,22,4.6,4.6,47,0.00,CLR,,0.00,WeatherDisplay:10.37,2013-04-11 23:45:00,
2013-04-11 19:50:00,73.8,52.3,29.75,NNE,22,5.8,5.8,47,0.00,CLR,,0.00,WeatherDisplay:10.37,2013-04-11 23:50:00,
2013-04-11 19:55:00,73.2,51.8,29.75,NNE,22,2.3,2.3,47,0.00,CLR,,0.00,WeatherDisplay:10.37,2013-04-11 23:55:00,
2013-04-11 20:00:00,73.0,51.6,29.75,NNE,22,8.1,8.1,47,0.00,CLR,,0.00,WeatherDisplay:10.37,2013-04-12 00:00:00,
2013-04-11 20:05:00,72.9,52.0,29.75,NNE,22,8.2,8.2,48,0.00,CLR,,0.00,WeatherDisplay:10.37,2013-04-12 00:05:00,
2013-04-11 20:10:00,72.5,51.7,29.74,NNE,22,2.3,2.3,48,0.00,CLR,,0.00,WeatherDisplay:10.37,2013-04-12 00:10:00,
2013-04-11 20:15:00,72.3,52.1,29.74,NNE,22,2.3,2.3,49,0.00,CLR,,0.00,WeatherDisplay:10.37,2013-04-12 00:15:00,
2013-04-11 20:20:00,72.1,51.9,29.73,NNE,22,1.2,1.2,49,0.00,CLR,,0.00,WeatherDisplay:10.37,2013-04-12 00:20:00,
2013-04-11 20:25:00,71.8,51.6,29.73,NNE,22,8.1,8.1,49,0.00,CLR,,0.00,WeatherDisplay:10.37,2013-04-12 00:25:00,
2013-04-11 20:30:00,71.6,52.0,29.74,NNE,22,0.0,0.0,50,0.00,CLR,,0.00,WeatherDisplay:10.37,2013-04-12 00:30:00,
2013-04-11 20:35:00,71.1,52.0,29.73,NNE,22,5.8,6.0,51,0.00,CLR,,0.00,WeatherDisplay:10.37,2013-04-12 00:35:00,
2013-04-11 20:40:00,70.9,51.8,29.74,NNE,22,10.4,10.4,51,0.00,CLR,,0.00,WeatherDisplay:10.37,2013-04-12 00:40:00,
2013-04-11 20:45:00,70.7,51.7,29.74,NNE,22,2.3,0.0,51,0.00,CLR,,0.00,WeatherDisplay:10.37,2013-04-12 00:45:00,
2013-04-11 20:50:00,70.5,52.0,29.74,NNE,22,3.4,3.4,52,0.00,CLR,,0.00,WeatherDisplay:10.37,2013-04-12 00:50:00,
2013-04-11 20:55:00,70.5,52.0,29.75,NNE,22,3.5,3.5,52,0.00,CLR,,0.00,WeatherDisplay:10.37,2013-04-12 00:55:00,
2013-04-11 21:00:00,70.5,52.0,29.75,NNE,22,5.8,5.8,52,0.00,CLR,,0.00,WeatherDisplay:10.37,2013-04-12 01:00:00,
2013-04-11 21:05:00,70.5,52.0,29.75,NNE,22,3.6,3.8,52,0.00,CLR,,0.00,WeatherDisplay:10.37,2013-04-12 01:05:00,
2013-04-11 21:10:00,70.5,52.6,29.75,NNE,22,6.9,6.9,53,0.00,CLR,,0.00,WeatherDisplay:10.37,2013-04-12 01:10:00,
2013-04-11 21:15:00,70.3,52.4,29.74,NNE,22,2.3,2.3,53,0.00,CLR,,0.00,WeatherDisplay:10.37,2013-04-12 01:15:00,
2013-04-11 21:20:00,70.3,52.4,29.75,NNE,22,7.0,7.0,53,0.00,CLR,,0.00,WeatherDisplay:10.37,2013-04-12 01:20:00,
2013-04-11 21:25:00,70.3,52.4,29.74,NNE,22,5.8,5.8,53,0.00,CLR,,0.00,WeatherDisplay:10.37,2013-04-12 01:25:00,
2013-04-11 21:30:00,70.3,52.4,29.74,NNE,22,4.6,4.6,53,0.00,CLR,,0.00,WeatherDisplay:10.37,2013-04-12 01:30:00,
2013-04-11 21:35:00,70.3,52.4,29.74,NNE,22,3.4,3.4,53,0.00,CLR,,0.00,WeatherDisplay:10.37,2013-04-12 01:35:00,
2013-04-11 21:40:00,70.3,52.4,29.73,NNE,22,8.1,8.1,53,0.00,CLR,,0.00,WeatherDisplay:10.37,2013-04-12 01:40:00,
2013-04-11 21:45:00,70.2,52.2,29.73,NNE,22,4.6,4.6,53,0.00,CLR,,0.00,WeatherDisplay:10.37,2013-04-12 01:45:00,
2013-04-11 21:50:00,70.0,52.1,29.73,NNE,22,1.1,3.2,53,0.00,CLR,,0.00,WeatherDisplay:10.37,2013-04-12 01:50:00,
2013-04-11 21:55:00,69.8,51.9,29.73,NNE,22,1.1,1.3,53,0.00,CLR,,0.00,WeatherDisplay:10.37,2013-04-12 01:55:00,
2013-04-11 22:00:00,69.6,51.7,29.73,NNE,22,3.5,3.5,53,0.00,CLR,,0.00,WeatherDisplay:10.37,2013-04-12 02:00:00,
2013-04-11 22:05:00,69.4,52.1,29.73,NNE,22,7.5,7.5,54,0.00,CLR,,0.00,WeatherDisplay:10.37,2013-04-12 02:05:00,
2013-04-11 22:10:00,69.3,51.9,29.73,NNE,22,5.8,5.8,54,0.00,CLR,,0.00,WeatherDisplay:10.37,2013-04-12 02:10:00,
2013-04-11 22:15:00,69.3,51.9,29.74,NNE,22,5.8,5.8,54,0.00,CLR,,0.00,WeatherDisplay:10.37,2013-04-12 02:15:00,
2013-04-11 22:20:00,69.1,51.7,29.74,NNE,22,8.1,8.5,54,0.00,CLR,,0.00,WeatherDisplay:10.37,2013-04-12 02:20:00,
2013-04-11 22:25:00,69.1,51.7,29.74,NNE,22,5.8,6.1,54,0.00,CLR,,0.00,WeatherDisplay:10.37,2013-04-12 02:25:00,
2013-04-11 22:30:00,69.1,51.7,29.74,NNE,22,4.8,5.0,54,0.00,CLR,,0.00,WeatherDisplay:10.37,2013-04-12 02:30:00,
2013-04-11 22:35:00,69.1,51.7,29.74,NNE,22,0.0,0.0,54,0.00,CLR,,0.00,WeatherDisplay:10.37,2013-04-12 02:35:00,
2013-04-11 22:40:00,68.9,52.1,29.74,NNE,22,4.6,4.6,55,0.00,CLR,,0.00,WeatherDisplay:10.37,2013-04-12 02:40:00,
2013-04-11 22:45:00,68.7,52.4,29.74,NNE,22,6.9,7.5,56,0.00,CLR,,0.00,WeatherDisplay:10.37,2013-04-12 02:45:00,
2013-04-11 22:50:00,68.7,52.4,29.74,NNE,22,3.5,3.5,56,0.00,CLR,,0.00,WeatherDisplay:10.37,2013-04-12 02:50:00,
2013-04-11 22:55:00,68.7,52.9,29.74,NNE,22,3.9,3.9,57,0.00,CLR,,0.00,WeatherDisplay:10.37,2013-04-12 02:55:00,
2013-04-11 23:00:00,68.7,52.9,29.74,NNE,22,5.8,6.0,57,0.00,CLR,,0.00,WeatherDisplay:10.37,2013-04-12 03:00:00,
2013-04-11 23:05:00,68.5,53.2,29.74,NNE,22,8.1,8.3,58,0.00,CLR,,0.00,WeatherDisplay:10.37,2013-04-12 03:05:00,
2013-04-11 23:10:00,68.5,53.6,29.74,NNE,22,5.8,5.8,59,0.00,CLR,,0.00,WeatherDisplay:10.37,2013-04-12 03:10:00,
2013-04-11 23:15:00,68.4,53.5,29.74,NNE,22,2.3,2.4,59,0.00,CLR,,0.00,WeatherDisplay:10.37,2013-04-12 03:15:00,
2013-04-11 23:20:00,68.2,54.2,29.74,NNE,22,4.3,4.3,61,0.00,CLR,,0.00,WeatherDisplay:10.37,2013-04-12 03:20:00,
2013-04-11 23:25:00,67.8,54.3,29.73,NNE,22,4.6,4.6,62,0.00,CLR,,0.00,WeatherDisplay:10.37,2013-04-12 03:25:00,
2013-04-11 23:30:00,67.1,54.5,29.73,NNE,22,1.1,1.5,64,0.00,CLR,,0.00,WeatherDisplay:10.37,2013-04-12 03:30:00,
2013-04-11 23:35:00,65.8,54.6,29.74,NNE,22,3.5,3.5,67,0.00,CLR,,0.00,WeatherDisplay:10.37,2013-04-12 03:35:00,
2013-04-11 23:40:00,65.1,55.1,29.73,NNE,22,4.8,4.8,70,0.00,CLR,,0.00,WeatherDisplay:10.37,2013-04-12 03:40:00,
2013-04-11 23:45:00,64.9,55.3,29.73,NNE,22,3.5,3.8,71,0.00,CLR,,0.00,WeatherDisplay:10.37,2013-04-12 03:45:00,
2013-04-11 23:50:00,64.9,55.3,29.73,NNE,22,4.6,4.8,71,0.00,CLR,,0.00,WeatherDisplay:10.37,2013-04-12 03:50:00,
2013-04-11 23:55:00,64.6,55.3,29.73,NNE,22,3.5,0.0,72,0.00,CLR,,0.00,WeatherDisplay:10.37,2013-04-12 03:55:00,